Terminal Aerodrome Forecast
Issued by NWS

Home | Current Version | Previous Version | Text Only | Print | Product List | Glossary On
Versions: 1 2 3 4 5 6 7 8 9 10 11 12 13 14 15 16 17
358
FTUS42 KTBW 042334
TAFRSW
TAF
KRSW 042334Z 0500/0524 12005KT P6SM FEW050 SCT250
     FM050900 13006KT 5SM BR SCT020 BKN200
     FM051500 15009KT P6SM BKN150
     FM052000 20010KT P6SM VCSH BKN040 OVC100=

USA.gov is the U.S. government's official web portal to all federal, state and local government web resources and services.